Time;durP1;ratioP1;P1;durP2;ratioP2;P2;SDS_P1;SDS_P2;PMS_P1;PMS_P2;Temp;Humidity;BMP_temperature;BMP_pressure;BME280_temperature;BME280_humidity;BME280_pressure;Samples;Min_cycle;Max_cycle;Signal;HPM_P1;HPM_P2
2022/11/04 00:02:02;;;;;;;2.28;0.38;;;11.10;99.90;;;;;;5084858;28;20040;-70
2022/11/04 00:04:28;;;;;;;6.88;0.77;;;11.10;99.90;;;;;;5084607;28;20038;-70
2022/11/04 00:06:55;;;;;;;1.67;0.40;;;11.10;99.90;;;;;;5086514;28;20044;-69
2022/11/04 00:09:24;;;;;;;2.67;0.50;;;11.10;99.90;;;;;;5079969;28;20109;-70
2022/11/04 00:14:34;;;;;;;3.40;0.20;;;11.00;99.90;;;;;;5103991;27;20133;-71
2022/11/04 00:17:20;;;;;;;1.92;0.30;;;11.00;99.90;;;;;;5105595;27;20034;-69
2022/11/04 00:33:24;;;;;;;4.00;0.35;;;10.90;99.90;;;;;;5083177;28;20184;-70
2022/11/04 00:33:46;;;;;;;1.83;0.40;;;11.00;99.90;;;;;;5084886;28;20096;-70
2022/11/04 00:36:11;;;;;;;3.20;0.50;;;11.00;99.90;;;;;;5084920;28;20031;-70
2022/11/04 00:38:37;;;;;;;1.38;0.30;;;11.00;99.90;;;;;;5086101;28;20205;-70
2022/11/04 00:41:24;;;;;;;2.08;0.22;;;10.90;99.90;;;;;;5085659;28;20028;-70
2022/11/04 00:43:48;;;;;;;7.40;0.73;;;10.90;99.90;;;;;;5080594;28;20032;-70
2022/11/04 00:46:13;;;;;;;2.53;0.35;;;10.90;99.90;;;;;;5084615;28;20046;-70
2022/11/04 00:48:39;;;;;;;3.67;0.70;;;10.90;99.90;;;;;;5085993;28;20081;-69
2022/11/04 00:51:05;;;;;;;6.18;0.80;;;10.90;99.90;;;;;;5085339;28;20070;-70
2022/11/04 00:53:30;;;;;;;6.53;1.45;;;10.90;99.90;;;;;;5084499;28;20032;-70
2022/11/04 00:55:58;;;;;;;5.22;0.85;;;10.90;99.90;;;;;;5085453;28;20032;-70
2022/11/04 00:58:24;;;;;;;3.38;0.70;;;10.90;99.90;;;;;;5083288;28;20035;-70
2022/11/04 01:00:50;;;;;;;2.95;0.85;;;10.90;99.90;;;;;;5085062;28;20188;-70
2022/11/04 01:03:15;;;;;;;3.90;0.70;;;10.90;99.90;;;;;;5084472;28;20040;-70
2022/11/04 01:05:41;;;;;;;2.70;1.48;;;10.90;99.90;;;;;;5085537;28;20032;-70
2022/11/04 01:08:06;;;;;;;3.30;0.70;;;10.90;99.90;;;;;;5085061;28;20462;-70
2022/11/04 01:10:35;;;;;;;7.10;0.70;;;11.00;99.90;;;;;;5085581;28;20447;-69
2022/11/04 01:13:00;;;;;;;2.08;0.50;;;11.00;99.90;;;;;;5083966;28;20047;-69
2022/11/04 01:15:26;;;;;;;2.75;0.20;;;10.90;99.90;;;;;;5084285;28;20040;-71
2022/11/04 01:17:51;;;;;;;0.93;0.20;;;11.00;99.90;;;;;;5085643;28;20037;-70
2022/11/04 01:20:17;;;;;;;1.52;0.30;;;10.90;99.90;;;;;;5083871;28;20035;-70
2022/11/04 01:22:43;;;;;;;4.75;0.60;;;11.00;99.90;;;;;;5086031;28;20643;-70
2022/11/04 01:25:09;;;;;;;3.25;0.28;;;10.90;99.90;;;;;;5087392;28;20039;-70
2022/11/04 01:27:34;;;;;;;1.58;0.30;;;10.90;99.90;;;;;;5085080;28;20123;-70
2022/11/04 01:30:00;;;;;;;2.72;0.20;;;10.80;99.90;;;;;;5083187;28;20071;-69
2022/11/04 01:32:27;;;;;;;1.40;0.13;;;10.80;99.90;;;;;;5084093;28;20032;-70
2022/11/04 01:34:52;;;;;;;2.95;0.30;;;10.70;99.90;;;;;;5087476;28;20028;-70
2022/11/04 01:37:18;;;;;;;0.93;0.10;;;10.60;99.90;;;;;;5088404;28;20039;-70
2022/11/04 01:39:43;;;;;;;0.98;0.47;;;10.60;99.90;;;;;;5080978;28;20121;-70
2022/11/04 01:42:13;;;;;;;1.95;0.47;;;10.50;99.90;;;;;;5086791;28;20039;-70
2022/11/04 01:44:48;;;;;;;0.43;0.10;;;10.50;99.90;;;;;;5088643;28;20039;-70
2022/11/04 01:47:22;;;;;;;1.80;0.22;;;10.40;99.90;;;;;;5088025;28;20102;-70
2022/11/04 01:49:52;;;;;;;0.00;0.00;;;10.40;99.90;;;;;;5085380;28;20068;-70
2022/11/04 01:52:24;;;;;;;1.55;0.57;;;10.40;99.90;;;;;;5088288;28;20093;-70
2022/11/04 01:54:52;;;;;;;0.60;0.10;;;10.30;99.90;;;;;;5088514;28;20127;-70
2022/11/04 01:57:27;;;;;;;4.88;0.35;;;10.30;99.90;;;;;;5088047;28;20040;-71
2022/11/04 01:59:52;;;;;;;0.30;0.10;;;10.30;99.90;;;;;;5089099;28;20028;-70
2022/11/04 02:02:18;;;;;;;1.50;0.20;;;10.30;99.90;;;;;;5087859;28;20055;-69
2022/11/04 02:04:44;;;;;;;1.15;0.10;;;10.30;99.90;;;;;;5088354;28;20032;-70
2022/11/04 02:07:10;;;;;;;1.83;0.10;;;10.30;99.90;;;;;;5087695;28;20032;-70
2022/11/04 02:09:39;;;;;;;1.83;0.28;;;10.30;99.90;;;;;;5088966;28;20036;-69
2022/11/04 02:14:50;;;;;;;0.57;0.30;;;10.30;99.90;;;;;;5076111;28;20043;-70
2022/11/04 02:17:18;;;;;;;0.40;0.10;;;10.30;99.90;;;;;;5086510;28;20028;-70
2022/11/04 02:19:58;;;;;;;0.63;0.30;;;10.40;99.90;;;;;;5091801;28;20115;-70
2022/11/04 02:22:43;;;;;;;;;;;10.40;99.90;;;;;;5085876;28;20135;-71
2022/11/04 02:25:30;;;;;;;2.40;0.30;;;10.40;99.90;;;;;;5086016;28;20697;-69
2022/11/04 02:28:37;;;;;;;4.93;0.40;;;10.40;99.90;;;;;;5088666;28;20040;-70
2022/11/04 02:31:22;;;;;;;0.90;0.40;;;10.40;99.90;;;;;;5106952;28;20070;-70
2022/11/04 02:34:15;;;;;;;0.88;0.10;;;10.40;99.90;;;;;;5103084;28;20047;-71
2022/11/04 02:36:59;;;;;;;0.30;0.15;;;10.40;99.90;;;;;;5086264;27;20028;-72
2022/11/04 02:39:31;;;;;;;3.97;0.73;;;10.30;99.90;;;;;;5085847;28;20548;-70
2022/11/04 02:42:08;;;;;;;1.75;0.40;;;10.30;99.90;;;;;;5083460;28;20411;-69
2022/11/04 02:44:47;;;;;;;5.47;0.45;;;10.20;99.90;;;;;;5087418;28;20051;-70
2022/11/04 02:47:18;;;;;;;1.50;0.32;;;10.20;99.90;;;;;;5086045;28;20060;-70
2022/11/04 02:49:51;;;;;;;1.73;0.20;;;10.20;99.90;;;;;;5080657;28;20042;-70
2022/11/04 02:52:35;;;;;;;0.95;0.30;;;10.10;99.90;;;;;;5078849;28;20649;-69
2022/11/04 02:55:03;;;;;;;0.47;0.35;;;10.10;99.90;;;;;;5086464;28;20036;-70
2022/11/04 02:57:33;;;;;;;1.92;0.40;;;10.00;99.90;;;;;;5087188;28;20610;-70
2022/11/04 03:00:04;;;;;;;2.10;1.05;;;10.00;99.90;;;;;;5086418;28;20032;-70
2022/11/04 03:02:44;;;;;;;0.82;0.20;;;10.00;99.90;;;;;;5086576;28;20153;-70
2022/11/04 03:05:15;;;;;;;1.98;0.30;;;10.00;99.90;;;;;;5078746;28;20089;-70
2022/11/04 03:07:42;;;;;;;2.38;0.60;;;10.00;99.90;;;;;;5084466;28;20039;-69
2022/11/04 03:10:15;;;;;;;2.55;0.30;;;10.00;99.90;;;;;;5086713;28;20043;-70
2022/11/04 03:12:47;;;;;;;0.75;0.30;;;9.90;99.90;;;;;;5087609;28;20123;-71
2022/11/04 03:15:19;;;;;;;1.50;0.40;;;9.90;99.90;;;;;;5073687;28;20568;-69
2022/11/04 03:18:16;;;;;;;4.95;0.45;;;9.80;99.90;;;;;;5086752;28;20036;-71
2022/11/04 03:20:45;;;;;;;1.92;0.50;;;9.80;99.90;;;;;;5078991;28;20024;-69
2022/11/04 03:23:11;;;;;;;1.92;0.38;;;9.80;99.90;;;;;;5070996;28;20028;-70
2022/11/04 03:25:43;;;;;;;1.85;0.70;;;9.70;99.90;;;;;;5083958;28;20031;-70
2022/11/04 03:28:34;;;;;;;4.95;0.80;;;9.70;99.90;;;;;;5081580;28;20043;-70
2022/11/04 03:31:03;;;;;;;8.15;0.60;;;9.70;99.90;;;;;;5086995;28;20055;-70
2022/11/04 03:33:49;;;;;;;3.40;1.00;;;9.60;99.90;;;;;;5086664;28;20036;-69
2022/11/04 03:36:15;;;;;;;2.47;1.05;;;9.60;99.90;;;;;;5082460;28;20048;-70
2022/11/04 03:38:41;;;;;;;4.60;1.00;;;9.50;99.90;;;;;;5088744;28;20442;-70
2022/11/04 03:41:16;;;;;;;2.53;0.95;;;9.50;99.90;;;;;;5081682;28;20138;-72
2022/11/04 03:43:42;;;;;;;5.10;0.70;;;9.50;99.90;;;;;;5086991;28;20032;-69
2022/11/04 03:46:08;;;;;;;2.95;0.70;;;9.50;99.90;;;;;;5087495;28;20040;-70
2022/11/04 03:48:34;;;;;;;2.60;0.57;;;9.40;99.90;;;;;;5088280;28;20032;-71
2022/11/04 03:51:00;;;;;;;2.67;0.77;;;9.40;99.90;;;;;;5086433;28;20032;-71
2022/11/04 03:53:28;;;;;;;2.72;1.00;;;9.40;99.90;;;;;;5084609;28;20111;-69
2022/11/04 03:56:05;;;;;;;2.38;1.20;;;9.30;99.90;;;;;;5087559;28;20043;-69
2022/11/04 03:58:40;;;;;;;3.45;0.95;;;9.30;99.90;;;;;;5087034;28;20032;-70
2022/11/04 04:01:10;;;;;;;1.88;1.05;;;9.30;99.90;;;;;;5087682;28;20032;-70
2022/11/04 04:03:47;;;;;;;5.25;1.38;;;9.20;99.90;;;;;;5082630;28;20020;-70
2022/11/04 04:06:19;;;;;;;2.08;1.13;;;9.20;99.90;;;;;;5087114;28;20067;-70
2022/11/04 04:08:52;;;;;;;5.18;1.55;;;9.20;99.90;;;;;;5086134;28;20060;-70
2022/11/04 04:11:44;;;;;;;4.88;1.40;;;9.20;99.90;;;;;;5085462;28;20094;-71
2022/11/04 04:14:40;;;;;;;3.42;1.65;;;9.20;99.90;;;;;;5070279;28;20020;-70
2022/11/04 04:17:28;;;;;;;5.93;2.03;;;9.20;99.90;;;;;;5081903;28;20050;-69
2022/11/04 04:19:59;;;;;;;7.03;1.83;;;9.20;99.90;;;;;;5086758;28;20377;-69
2022/11/04 04:22:35;;;;;;;2.58;1.52;;;9.20;99.90;;;;;;5086587;28;20040;-70
2022/11/04 04:27:52;;;;;;;5.15;2.35;;;9.20;99.90;;;;;;5085372;28;20058;-69
2022/11/04 04:30:18;;;;;;;4.75;2.17;;;9.20;99.90;;;;;;5085139;28;20064;-72
2022/11/04 04:32:47;;;;;;;4.70;2.30;;;9.10;99.90;;;;;;5086922;28;20067;-69
2022/11/04 04:46:30;;;;;;;5.45;2.17;;;9.00;99.90;;;;;;5084738;28;20073;-71
2022/11/04 04:49:05;;;;;;;5.95;2.47;;;8.90;99.90;;;;;;5086114;28;20223;-71
2022/11/04 04:51:32;;;;;;;5.55;2.65;;;8.90;99.90;;;;;;5085676;28;20476;-70
2022/11/04 04:53:58;;;;;;;9.63;3.10;;;8.90;99.90;;;;;;5083216;28;20039;-70
2022/11/04 04:56:23;;;;;;;6.55;3.15;;;8.80;99.90;;;;;;5085186;28;20028;-71
2022/11/04 04:58:49;;;;;;;9.15;2.72;;;8.80;99.90;;;;;;5086587;28;20024;-72
2022/11/04 05:01:14;;;;;;;8.40;3.05;;;8.80;99.90;;;;;;5076912;28;20108;-71
2022/11/04 05:03:40;;;;;;;6.35;2.85;;;8.80;99.90;;;;;;5079812;28;20032;-71
2022/11/04 05:06:05;;;;;;;6.25;3.05;;;8.80;99.90;;;;;;5086302;28;20039;-71
2022/11/04 05:08:31;;;;;;;5.53;2.72;;;8.80;99.90;;;;;;5085382;28;20035;-71
2022/11/04 05:10:58;;;;;;;5.78;2.95;;;8.80;99.90;;;;;;5086106;28;20040;-70
2022/11/04 05:13:28;;;;;;;10.55;3.67;;;8.70;99.90;;;;;;5083469;28;20115;-73
2022/11/04 05:16:02;;;;;;;6.88;2.75;;;8.70;99.90;;;;;;5086073;28;20044;-72
2022/11/04 05:18:28;;;;;;;6.82;2.80;;;8.70;99.90;;;;;;5084163;28;20598;-71
2022/11/04 05:20:53;;;;;;;5.57;2.65;;;8.70;99.90;;;;;;5086027;28;20104;-71
2022/11/04 05:23:19;;;;;;;6.80;2.95;;;8.60;99.90;;;;;;5083721;28;20067;-72
2022/11/04 05:25:44;;;;;;;6.25;2.60;;;8.60;99.90;;;;;;5083679;28;20047;-71
2022/11/04 05:28:10;;;;;;;7.65;3.35;;;8.60;99.90;;;;;;5082652;28;20427;-71
2022/11/04 05:30:36;;;;;;;7.10;3.20;;;8.50;99.90;;;;;;5085188;28;20047;-71
2022/11/04 05:33:02;;;;;;;6.18;2.70;;;8.50;99.90;;;;;;5084331;28;20411;-72
2022/11/04 05:35:27;;;;;;;6.30;2.80;;;8.40;99.90;;;;;;5082852;28;20041;-71
2022/11/04 05:37:55;;;;;;;8.80;3.50;;;8.40;99.90;;;;;;5084701;28;20051;-71
2022/11/04 05:40:20;;;;;;;7.43;3.22;;;8.40;99.90;;;;;;5083747;28;20032;-71
2022/11/04 05:42:46;;;;;;;7.35;3.85;;;8.30;99.90;;;;;;5083913;28;20101;-71
2022/11/04 05:45:11;;;;;;;8.50;4.45;;;8.40;99.90;;;;;;5084552;28;20039;-71
2022/11/04 05:47:37;;;;;;;8.32;3.10;;;8.30;99.90;;;;;;5084383;28;20044;-71
2022/11/04 05:50:03;;;;;;;7.97;3.10;;;8.40;99.90;;;;;;5085197;28;20050;-70
2022/11/04 05:52:28;;;;;;;8.77;3.72;;;8.40;99.90;;;;;;5082994;28;20435;-75
2022/11/04 05:54:54;;;;;;;9.15;3.78;;;8.30;99.90;;;;;;5083449;28;20036;-70
2022/11/04 05:57:19;;;;;;;8.23;3.55;;;8.30;99.90;;;;;;5084396;28;20062;-71
2022/11/04 05:59:45;;;;;;;7.32;3.65;;;8.40;99.90;;;;;;5085260;28;20032;-71
2022/11/04 06:02:10;;;;;;;8.82;4.22;;;8.40;99.90;;;;;;5085031;28;20038;-71
2022/11/04 06:04:36;;;;;;;16.50;4.78;;;8.40;99.90;;;;;;5084743;28;20120;-71
2022/11/04 06:07:02;;;;;;;9.73;3.80;;;8.40;99.90;;;;;;5089466;28;20039;-70
2022/11/04 06:09:39;;;;;;;11.45;4.10;;;8.40;99.90;;;;;;5086622;28;20055;-71
2022/11/04 06:12:06;;;;;;;12.70;4.38;;;8.50;99.90;;;;;;5086387;28;20032;-72
2022/11/04 06:14:32;;;;;;;7.55;4.07;;;8.50;99.90;;;;;;5087317;28;20038;-71
2022/11/04 06:16:59;;;;;;;10.77;4.13;;;8.50;99.90;;;;;;5087619;28;20557;-71
2022/11/04 06:19:25;;;;;;;13.05;4.95;;;8.60;99.90;;;;;;5088220;28;20119;-71
2022/11/04 06:21:50;;;;;;;8.20;4.60;;;8.60;99.90;;;;;;5086975;28;20400;-72
2022/11/04 06:24:16;;;;;;;14.63;4.30;;;8.60;99.90;;;;;;5099091;28;20540;-70
2022/11/04 06:26:41;;;;;;;11.27;4.68;;;8.60;99.90;;;;;;5105348;27;20107;-71
2022/11/04 06:29:08;;;;;;;13.18;5.00;;;8.60;99.90;;;;;;5109729;28;20046;-71
2022/11/04 06:31:34;;;;;;;13.43;4.63;;;8.60;99.90;;;;;;5096215;28;20036;-71
2022/11/04 06:33:59;;;;;;;13.07;5.15;;;8.60;99.90;;;;;;5088283;28;20040;-71
2022/11/04 06:36:25;;;;;;;13.30;4.80;;;8.60;99.90;;;;;;5089691;28;20134;-71
2022/11/04 06:38:51;;;;;;;11.02;4.10;;;8.60;99.90;;;;;;5086890;28;20062;-71
2022/11/04 06:41:17;;;;;;;12.63;4.50;;;8.60;99.90;;;;;;5087396;28;20044;-70
2022/11/04 06:43:42;;;;;;;9.05;4.15;;;8.60;99.90;;;;;;5087461;28;20543;-70
2022/11/04 06:46:23;;;;;;;10.40;4.65;;;8.60;99.90;;;;;;5087947;28;20381;-70
2022/11/04 06:48:48;;;;;;;11.52;4.90;;;8.60;99.90;;;;;;5089284;28;20537;-70
2022/11/04 06:51:14;;;;;;;10.45;4.22;;;8.50;99.90;;;;;;5086611;28;20032;-71
2022/11/04 06:53:39;;;;;;;12.70;4.35;;;8.50;99.90;;;;;;5088146;28;20535;-70
2022/11/04 06:56:05;;;;;;;12.25;4.55;;;8.60;99.90;;;;;;5088954;28;20492;-70
2022/11/04 06:58:31;;;;;;;14.27;3.70;;;8.60;99.90;;;;;;5087622;28;20431;-70
2022/11/04 07:00:57;;;;;;;10.40;4.38;;;8.60;99.90;;;;;;5086690;28;20032;-69
2022/11/04 07:03:22;;;;;;;10.35;4.05;;;8.60;99.90;;;;;;5086297;27;20032;-71
2022/11/04 07:05:48;;;;;;;7.65;3.53;;;8.60;99.90;;;;;;5101726;28;20032;-70
2022/11/04 07:08:14;;;;;;;7.40;3.58;;;8.50;99.90;;;;;;5108248;28;20047;-70
2022/11/04 07:10:40;;;;;;;10.73;3.72;;;8.50;99.90;;;;;;5103003;28;20058;-71
2022/11/04 07:13:06;;;;;;;9.73;3.10;;;8.50;99.90;;;;;;5104199;27;20031;-70
2022/11/04 07:15:32;;;;;;;11.85;3.50;;;8.50;99.90;;;;;;5107403;27;20055;-69
2022/11/04 07:17:59;;;;;;;10.38;3.83;;;8.50;99.90;;;;;;5108077;27;20074;-69
2022/11/04 07:20:24;;;;;;;5.57;3.05;;;8.50;99.90;;;;;;5095336;27;20028;-70
2022/11/04 07:22:52;;;;;;;9.20;3.15;;;8.50;99.90;;;;;;5094959;28;20031;-69
2022/11/04 07:25:18;;;;;;;8.43;3.53;;;8.50;99.90;;;;;;5106403;28;20123;-71
2022/11/04 07:27:43;;;;;;;7.95;3.25;;;8.50;99.90;;;;;;5080701;28;20627;-70
2022/11/04 07:30:09;;;;;;;8.02;3.28;;;8.50;99.90;;;;;;5091085;28;20043;-70
2022/11/04 07:32:36;;;;;;;11.00;3.75;;;8.50;99.90;;;;;;5100354;27;20712;-70
2022/11/04 07:35:02;;;;;;;15.70;3.40;;;8.50;99.90;;;;;;5093333;28;20126;-70
2022/11/04 07:37:27;;;;;;;9.77;3.75;;;8.50;99.90;;;;;;5086302;28;20128;-70
2022/11/04 07:39:53;;;;;;;14.80;3.45;;;8.60;99.90;;;;;;5083240;28;20101;-70
2022/11/04 07:42:19;;;;;;;6.63;3.25;;;8.60;99.90;;;;;;5085578;28;20492;-71
2022/11/04 07:44:46;;;;;;;15.38;3.85;;;8.60;99.90;;;;;;5086932;28;20058;-70
2022/11/04 07:47:11;;;;;;;7.40;2.95;;;8.70;99.90;;;;;;5086632;28;20036;-70
2022/11/04 07:49:37;;;;;;;8.85;3.42;;;8.70;99.90;;;;;;5087432;28;20066;-70
2022/11/04 07:52:03;;;;;;;13.80;3.95;;;8.70;99.90;;;;;;5086986;28;20070;-70
2022/11/04 07:54:28;;;;;;;6.50;2.92;;;8.70;99.90;;;;;;5086032;28;20391;-70
2022/11/04 07:56:54;;;;;;;11.95;3.13;;;8.80;99.90;;;;;;5087052;28;20089;-69
2022/11/04 07:59:20;;;;;;;7.00;2.92;;;8.90;99.90;;;;;;5077263;28;20051;-69
2022/11/04 08:01:45;;;;;;;10.65;3.75;;;8.90;99.90;;;;;;5086601;28;20491;-70
2022/11/04 08:04:11;;;;;;;10.43;3.22;;;8.90;99.90;;;;;;5083214;28;20036;-70
2022/11/04 08:06:37;;;;;;;6.45;2.40;;;8.90;99.90;;;;;;5086240;28;20063;-71
2022/11/04 08:09:03;;;;;;;9.88;2.97;;;9.00;99.90;;;;;;5082993;28;20036;-71
2022/11/04 08:11:29;;;;;;;11.32;2.60;;;9.00;99.90;;;;;;5082140;28;20130;-70
2022/11/04 08:13:55;;;;;;;10.88;3.40;;;9.10;99.90;;;;;;5083049;28;20463;-69
2022/11/04 08:16:23;;;;;;;10.35;3.72;;;9.10;99.90;;;;;;5081083;27;20031;-71
2022/11/04 08:18:51;;;;;;;11.77;3.22;;;9.20;99.90;;;;;;5096759;28;20443;-72
2022/11/04 08:21:18;;;;;;;8.70;2.60;;;9.20;99.90;;;;;;5101451;28;20024;-69
2022/11/04 08:23:45;;;;;;;9.35;2.70;;;9.30;99.90;;;;;;5099264;28;20023;-70
2022/11/04 08:26:13;;;;;;;9.48;3.38;;;9.40;99.90;;;;;;5094153;28;20044;-71
2022/11/04 08:28:39;;;;;;;16.10;3.38;;;9.40;99.90;;;;;;5083243;28;20028;-71
2022/11/04 08:31:32;;;;;;;11.90;2.78;;;9.50;99.90;;;;;;5084975;28;20105;-70
2022/11/04 08:33:58;;;;;;;10.52;2.53;;;9.50;99.90;;;;;;5079108;28;20420;-70
2022/11/04 08:36:28;;;;;;;5.50;2.20;;;9.60;99.90;;;;;;5084348;28;20028;-71
2022/11/04 08:38:54;;;;;;;9.05;3.15;;;9.70;99.90;;;;;;5083762;28;20048;-72
2022/11/04 08:41:24;;;;;;;12.85;3.03;;;9.70;99.90;;;;;;5078833;28;20114;-72
2022/11/04 08:43:50;;;;;;;9.93;2.45;;;9.80;99.90;;;;;;5085219;28;20111;-70
2022/11/04 08:46:16;;;;;;;7.38;2.03;;;9.80;99.90;;;;;;5082207;28;20127;-71
2022/11/04 08:48:42;;;;;;;6.20;2.55;;;9.90;99.90;;;;;;5083238;28;20079;-70
2022/11/04 08:51:14;;;;;;;7.50;2.20;;;10.00;99.90;;;;;;5083130;28;20112;-71
2022/11/04 08:53:40;;;;;;;5.95;2.30;;;10.00;99.90;;;;;;5083114;28;20130;-70
2022/11/04 08:56:25;;;;;;;6.90;2.10;;;10.10;99.90;;;;;;5083937;28;20385;-70
2022/11/04 08:58:50;;;;;;;7.90;1.92;;;10.20;99.90;;;;;;5080380;28;20024;-70
2022/11/04 09:01:16;;;;;;;7.90;2.40;;;10.20;99.90;;;;;;5083119;28;20028;-70
2022/11/04 09:03:42;;;;;;;12.57;3.22;;;10.30;99.90;;;;;;5082625;28;20084;-70
2022/11/04 09:06:14;;;;;;;5.72;2.05;;;10.40;99.90;;;;;;5096189;28;20080;-70
2022/11/04 09:08:40;;;;;;;6.50;2.47;;;10.40;99.90;;;;;;5095128;27;20063;-71
2022/11/04 09:11:07;;;;;;;12.48;1.95;;;10.50;99.90;;;;;;5088050;28;20715;-71
2022/11/04 09:13:33;;;;;;;4.85;2.33;;;10.60;99.90;;;;;;5083796;28;20025;-71
2022/11/04 09:15:58;;;;;;;9.65;2.50;;;10.60;99.90;;;;;;5081641;28;20085;-72
2022/11/04 09:18:24;;;;;;;9.90;2.60;;;10.60;99.90;;;;;;5081385;28;20381;-71
2022/11/04 09:20:49;;;;;;;8.25;2.85;;;10.70;99.90;;;;;;5081841;28;20089;-71
2022/11/04 09:23:15;;;;;;;7.82;2.67;;;10.80;99.90;;;;;;5081286;28;20048;-71
2022/11/04 09:25:40;;;;;;;12.13;2.83;;;10.90;99.90;;;;;;5079558;28;20039;-70
2022/11/04 09:28:06;;;;;;;5.82;2.50;;;10.90;99.90;;;;;;5082845;28;20112;-71
2022/11/04 09:30:32;;;;;;;5.35;2.67;;;10.90;99.90;;;;;;5077597;28;20479;-71
2022/11/04 09:32:58;;;;;;;9.20;2.65;;;10.90;99.90;;;;;;5087633;28;20082;-71
2022/11/04 09:35:26;;;;;;;9.82;2.70;;;10.90;99.90;;;;;;5101225;28;20100;-71
2022/11/04 09:37:52;;;;;;;12.52;2.78;;;10.80;99.90;;;;;;5105501;28;20050;-70
2022/11/04 09:40:21;;;;;;;8.18;3.22;;;10.70;99.90;;;;;;5105166;28;20035;-70
2022/11/04 09:43:17;;;;;;;10.15;3.38;;;10.70;99.90;;;;;;5104515;28;20050;-70
2022/11/04 09:45:43;;;;;;;10.95;3.60;;;10.60;99.90;;;;;;5107868;28;20384;-71
2022/11/04 09:48:32;;;;;;;19.27;4.32;;;10.60;99.90;;;;;;5107874;27;20046;-75
2022/11/04 09:51:01;;;;;;;13.75;3.55;;;10.60;99.90;;;;;;5106734;27;20043;-71
2022/11/04 09:53:58;;;;;;;13.07;3.42;;;10.70;99.90;;;;;;5107105;27;20031;-71
2022/11/04 09:56:31;;;;;;;9.82;3.63;;;10.90;99.90;;;;;;5104166;28;20093;-71
2022/11/04 09:58:56;;;;;;;9.43;3.30;;;11.10;99.90;;;;;;5108877;28;20076;-71
2022/11/04 10:01:35;;;;;;;6.75;3.00;;;11.20;99.90;;;;;;5108136;27;20056;-70
2022/11/04 10:04:25;;;;;;;11.13;2.63;;;11.30;99.90;;;;;;5108010;27;20062;-71
2022/11/04 10:07:26;;;;;;;9.45;3.15;;;11.40;99.90;;;;;;5104551;28;20046;-71
2022/11/04 10:10:13;;;;;;;7.03;3.13;;;11.60;99.90;;;;;;5112281;27;20040;-71
2022/11/04 10:13:11;;;;;;;8.77;2.85;;;11.70;99.90;;;;;;5106484;28;20085;-69
2022/11/04 10:15:54;;;;;;;7.50;2.75;;;11.80;99.90;;;;;;5038133;28;20745;-71
2022/11/04 10:18:20;;;;;;;6.55;2.58;;;11.90;99.90;;;;;;5084084;27;20063;-70
2022/11/04 10:21:00;;;;;;;5.15;2.25;;;12.00;99.90;;;;;;5085536;28;20052;-71
2022/11/04 10:23:32;;;;;;;;;;;12.10;99.90;;;;;;5083291;27;20204;-71
2022/11/04 10:26:27;;;;;;;5.82;2.38;;;12.20;99.90;;;;;;5090299;27;20360;-71
2022/11/04 10:29:05;;;;;;;10.50;2.45;;;12.20;99.90;;;;;;5064094;28;20047;-71
2022/11/04 10:31:30;;;;;;;9.60;2.13;;;12.30;99.90;;;;;;5087140;28;20039;-71
2022/11/04 10:34:04;;;;;;;10.95;2.38;;;12.30;99.90;;;;;;5087367;28;20111;-71
2022/11/04 10:36:31;;;;;;;16.73;3.40;;;12.30;99.90;;;;;;5088121;28;20068;-71
2022/11/04 10:38:57;;;;;;;9.73;2.85;;;12.30;99.90;;;;;;5086402;28;20521;-71
2022/11/04 10:41:23;;;;;;;12.45;2.90;;;12.20;99.90;;;;;;5086235;28;20032;-71
2022/11/04 10:43:53;;;;;;;5.75;2.00;;;12.20;99.90;;;;;;5085895;28;20052;-70
2022/11/04 10:46:18;;;;;;;6.90;2.43;;;12.10;99.90;;;;;;5085620;28;20141;-71
2022/11/04 10:49:14;;;;;;;7.45;2.30;;;12.10;99.90;;;;;;5086191;28;20024;-71
2022/11/04 10:51:40;;;;;;;4.78;2.33;;;12.10;99.90;;;;;;5105426;28;20130;-71
2022/11/04 10:54:08;;;;;;;7.20;2.55;;;12.00;99.90;;;;;;5107169;28;20161;-71
2022/11/04 10:56:40;;;;;;;10.75;2.20;;;12.00;99.90;;;;;;5086576;27;20032;-71
2022/11/04 10:59:27;;;;;;;8.82;2.95;;;11.90;99.90;;;;;;5086006;28;20043;-71
2022/11/04 11:01:58;;;;;;;5.68;2.38;;;11.90;99.90;;;;;;5104725;27;20032;-70
2022/11/04 11:04:36;;;;;;;6.07;2.47;;;12.00;99.90;;;;;;5105569;28;20110;-71
2022/11/04 11:07:05;;;;;;;8.35;2.03;;;12.00;99.90;;;;;;5107544;27;20039;-71
2022/11/04 11:10:00;;;;;;;4.47;2.10;;;12.00;99.90;;;;;;5106279;27;20735;-70
2022/11/04 11:12:29;;;;;;;6.07;3.08;;;11.90;99.90;;;;;;5102793;28;20035;-71
2022/11/04 11:14:56;;;;;;;6.15;2.22;;;11.90;99.90;;;;;;5107391;28;20082;-72
2022/11/04 11:17:36;;;;;;;6.18;2.80;;;12.00;99.90;;;;;;5106268;27;20039;-71
2022/11/04 11:20:15;;;;;;;5.15;2.50;;;12.00;99.90;;;;;;5104983;28;20038;-72
2022/11/04 11:22:43;;;;;;;15.20;3.22;;;12.10;99.90;;;;;;5106016;27;20520;-70
2022/11/04 11:25:19;;;;;;;7.10;2.20;;;12.20;99.90;;;;;;5105189;28;20387;-70
2022/11/04 11:27:51;;;;;;;6.15;2.22;;;12.20;99.90;;;;;;5110634;27;20048;-70
2022/11/04 11:30:42;;;;;;;8.10;2.38;;;12.20;99.90;;;;;;5102008;27;20059;-72
2022/11/04 11:33:27;;;;;;;8.50;2.40;;;12.20;99.90;;;;;;5105427;28;20039;-71
2022/11/04 11:35:59;;;;;;;6.65;2.72;;;12.20;99.90;;;;;;5104434;28;20070;-71
2022/11/04 11:38:27;;;;;;;8.23;2.72;;;12.20;99.90;;;;;;5089913;27;20032;-71
2022/11/04 11:41:07;;;;;;;7.82;2.85;;;12.30;99.90;;;;;;5086006;28;20093;-72
2022/11/04 11:43:35;;;;;;;7.82;1.73;;;12.30;99.90;;;;;;5083295;28;20492;-71
2022/11/04 11:46:02;;;;;;;6.63;2.35;;;12.20;99.90;;;;;;5085828;28;20040;-71
2022/11/04 11:48:30;;;;;;;6.25;2.45;;;12.20;99.90;;;;;;5084614;28;20507;-71
2022/11/04 11:50:59;;;;;;;7.53;2.33;;;12.10;99.90;;;;;;5085876;28;20566;-71
2022/11/04 11:53:29;;;;;;;3.13;1.63;;;12.10;99.90;;;;;;5083618;28;20097;-72
2022/11/04 11:56:05;;;;;;;6.43;1.43;;;12.10;99.90;;;;;;5084615;28;20027;-71
2022/11/04 11:58:50;;;;;;;6.05;1.33;;;12.10;99.90;;;;;;5084028;28;20042;-70
2022/11/04 12:01:39;;;;;;;8.07;2.78;;;12.10;99.90;;;;;;5077729;28;20043;-70
2022/11/04 12:04:06;;;;;;;5.85;1.85;;;12.10;99.90;;;;;;5082851;28;20039;-71
2022/11/04 12:06:31;;;;;;;4.30;1.98;;;12.10;99.90;;;;;;5083675;28;20043;-72
2022/11/04 12:09:29;;;;;;;5.78;2.13;;;12.10;99.90;;;;;;5084142;28;20044;-72
2022/11/04 12:12:22;;;;;;;7.57;2.10;;;12.20;99.90;;;;;;5036070;28;20077;-70
2022/11/04 12:15:11;;;;;;;7.53;2.30;;;12.20;99.90;;;;;;5071192;28;20111;-71
2022/11/04 12:17:52;;;;;;;5.97;1.90;;;12.20;99.90;;;;;;5084759;28;20035;-70
2022/11/04 12:20:26;;;;;;;;;;;12.20;99.90;;;;;;5078889;28;20035;-72
2022/11/04 12:23:20;;;;;;;5.18;1.50;;;12.30;99.90;;;;;;5075617;28;20311;-71
2022/11/04 12:26:00;;;;;;;4.75;1.25;;;12.20;99.90;;;;;;5073081;28;20118;-71
2022/11/04 12:28:51;;;;;;;5.32;0.60;;;12.10;99.90;;;;;;5083165;28;20441;-71
2022/11/04 12:31:53;;;;;;;0.88;0.20;;;12.10;99.90;;;;;;5099966;28;20028;-70
2022/11/04 12:34:40;;;;;;;4.25;0.47;;;12.00;99.90;;;;;;5063007;27;20039;-70
2022/11/04 12:37:21;;;;;;;0.70;0.10;;;11.90;99.90;;;;;;5084060;27;20030;-71
2022/11/04 12:39:56;;;;;;;2.88;0.03;;;11.90;99.90;;;;;;5098780;28;20502;-70
2022/11/04 12:42:33;;;;;;;0.22;0.00;;;11.80;99.90;;;;;;5100229;27;20036;-71
2022/11/04 12:45:27;;;;;;;0.35;0.00;;;11.90;99.90;;;;;;5103748;28;20035;-71
2022/11/04 12:48:04;;;;;;;7.18;0.30;;;12.00;99.90;;;;;;5109932;27;20032;-71
2022/11/04 12:50:39;;;;;;;1.95;0.17;;;12.00;99.90;;;;;;5103539;28;20712;-71
2022/11/04 12:53:36;;;;;;;1.10;0.15;;;12.20;99.90;;;;;;5103417;28;20470;-71
2022/11/04 12:56:16;;;;;;;0.70;0.10;;;12.00;99.90;;;;;;5100540;28;20396;-71
2022/11/04 12:59:13;;;;;;;1.30;0.30;;;12.10;99.90;;;;;;5100909;28;20172;-70
2022/11/04 13:02:27;;;;;;;1.75;0.88;;;11.90;99.90;;;;;;5071768;28;20034;-70
2022/11/04 13:05:14;;;;;;;2.60;0.15;;;11.80;99.90;;;;;;5078917;28;20064;-72
2022/11/04 13:07:51;;;;;;;1.70;0.20;;;11.60;99.90;;;;;;5080188;28;20082;-71
2022/11/04 13:10:38;;;;;;;1.70;0.28;;;11.60;99.90;;;;;;5084002;28;20116;-71
2022/11/04 13:13:07;;;;;;;6.97;0.50;;;11.40;99.90;;;;;;5081444;28;20025;-71
2022/11/04 13:15:48;;;;;;;0.60;0.20;;;11.30;99.90;;;;;;5083933;28;20030;-70
2022/11/04 13:18:18;;;;;;;1.70;0.47;;;11.20;99.90;;;;;;5085812;28;20056;-71
2022/11/04 13:21:05;;;;;;;3.70;0.45;;;11.10;99.90;;;;;;5089534;28;20039;-70
2022/11/04 13:23:44;;;;;;;0.60;0.20;;;11.10;99.90;;;;;;5083417;28;20500;-71
2022/11/04 13:26:13;;;;;;;4.80;0.30;;;11.00;99.90;;;;;;5084451;28;20519;-75
2022/11/04 13:28:40;;;;;;;1.00;0.10;;;11.10;99.90;;;;;;5086503;28;20514;-71
2022/11/04 13:31:29;;;;;;;0.65;0.10;;;11.00;99.90;;;;;;5088233;28;20116;-71
2022/11/04 13:34:21;;;;;;;4.85;0.20;;;11.00;99.90;;;;;;5085674;28;20634;-71
2022/11/04 13:37:11;;;;;;;3.20;0.30;;;11.00;99.90;;;;;;5085240;28;20512;-71
2022/11/04 13:39:46;;;;;;;2.42;0.15;;;11.10;99.90;;;;;;5079983;28;20032;-71
2022/11/04 13:42:42;;;;;;;2.25;0.10;;;11.10;99.90;;;;;;5084303;28;20032;-71
2022/11/04 13:45:13;;;;;;;2.65;0.10;;;11.20;99.90;;;;;;5084333;28;20040;-72
2022/11/04 13:47:54;;;;;;;0.20;0.00;;;11.20;99.90;;;;;;5086158;28;20047;-71